5NC6 weather

Tarboro-Edgecombe County Heliport
Tarboro, North Carolina, United States

Public forecast

Using degrees Fahrenheit for public forecast. Weather courtesy of forecast.io.

METAR (pilot weather report)

Closest report is Tarboro Edgecombe Airport, 0.2 nm (0.3 km) ENE. Retrieved 2019/06/17 09:40 UTC (0 seconds ago):

KETC 170940Z AUTO 19004KT 10SM CLR 22/19 A3000 RMK AO2 PWINO T02220194

TAF (pilot weather forecast)

Closest forecast is Rocky Mount Wilson Regional Airport, 17.3 nm (32.1 km) WSW. Retrieved 2019/06/17 06:40 UTC (3 hours ago):

TAF KRDU 170537Z 1706/1806 23008KT P6SM SCT250= TAF KRWI 170537Z 1706/1806 21009KT P6SM SCT250